sensor_id;sensor_type;location;lat;lon;timestamp;P1;durP1;ratioP1;P2;durP2;ratioP2
75437;SDS011;64015;49.392;15.582;2023-02-14T00:00:51;18.58;;;7.13;;
75437;SDS011;64015;49.392;15.582;2023-02-14T00:03:25;16.80;;;7.95;;
75437;SDS011;64015;49.392;15.582;2023-02-14T00:05:51;20.75;;;7.93;;
75437;SDS011;64015;49.392;15.582;2023-02-14T00:08:16;17.08;;;8.18;;
75437;SDS011;64015;49.392;15.582;2023-02-14T00:10:42;16.63;;;7.90;;
75437;SDS011;64015;49.392;15.582;2023-02-14T00:13:08;17.67;;;8.18;;
75437;SDS011;64015;49.392;15.582;2023-02-14T00:15:33;24.25;;;10.20;;
75437;SDS011;64015;49.392;15.582;2023-02-14T00:17:59;23.05;;;9.32;;
75437;SDS011;64015;49.392;15.582;2023-02-14T00:20:25;28.45;;;11.80;;
75437;SDS011;64015;49.392;15.582;2023-02-14T00:22:52;18.80;;;7.85;;
75437;SDS011;64015;49.392;15.582;2023-02-14T00:25:18;74.03;;;28.88;;
75437;SDS011;64015;49.392;15.582;2023-02-14T00:27:44;32.47;;;14.05;;
75437;SDS011;64015;49.392;15.582;2023-02-14T00:30:10;23.75;;;9.93;;
75437;SDS011;64015;49.392;15.582;2023-02-14T00:32:39;23.40;;;9.18;;
75437;SDS011;64015;49.392;15.582;2023-02-14T00:40:16;15.43;;;7.05;;
75437;SDS011;64015;49.392;15.582;2023-02-14T00:42:42;16.33;;;6.53;;
75437;SDS011;64015;49.392;15.582;2023-02-14T00:45:07;17.15;;;7.45;;
75437;SDS011;64015;49.392;15.582;2023-02-14T00:47:33;15.95;;;7.35;;
75437;SDS011;64015;49.392;15.582;2023-02-14T00:49:59;18.23;;;7.35;;
75437;SDS011;64015;49.392;15.582;2023-02-14T00:52:29;18.38;;;8.82;;
75437;SDS011;64015;49.392;15.582;2023-02-14T00:54:55;15.88;;;6.88;;
75437;SDS011;64015;49.392;15.582;2023-02-14T00:57:21;17.05;;;8.48;;
75437;SDS011;64015;49.392;15.582;2023-02-14T00:59:46;18.40;;;8.80;;
75437;SDS011;64015;49.392;15.582;2023-02-14T01:02:12;14.82;;;6.75;;
75437;SDS011;64015;49.392;15.582;2023-02-14T01:04:38;14.10;;;6.72;;
75437;SDS011;64015;49.392;15.582;2023-02-14T01:07:03;17.30;;;7.63;;
75437;SDS011;64015;49.392;15.582;2023-02-14T01:09:29;15.55;;;8.02;;
75437;SDS011;64015;49.392;15.582;2023-02-14T01:11:55;19.60;;;8.88;;
75437;SDS011;64015;49.392;15.582;2023-02-14T01:14:20;16.63;;;7.72;;
75437;SDS011;64015;49.392;15.582;2023-02-14T01:16:46;13.75;;;6.47;;
75437;SDS011;64015;49.392;15.582;2023-02-14T01:19:12;15.88;;;7.25;;
75437;SDS011;64015;49.392;15.582;2023-02-14T01:21:38;13.32;;;6.53;;
75437;SDS011;64015;49.392;15.582;2023-02-14T01:24:04;14.63;;;6.15;;
75437;SDS011;64015;49.392;15.582;2023-02-14T01:26:32;13.25;;;6.00;;
75437;SDS011;64015;49.392;15.582;2023-02-14T01:28:58;14.75;;;5.68;;
75437;SDS011;64015;49.392;15.582;2023-02-14T01:31:25;16.13;;;6.05;;
75437;SDS011;64015;49.392;15.582;2023-02-14T01:33:53;16.02;;;6.47;;
75437;SDS011;64015;49.392;15.582;2023-02-14T01:36:21;15.40;;;5.85;;
75437;SDS011;64015;49.392;15.582;2023-02-14T01:38:50;12.13;;;5.50;;
75437;SDS011;64015;49.392;15.582;2023-02-14T01:43:57;16.77;;;6.03;;
75437;SDS011;64015;49.392;15.582;2023-02-14T01:46:29;15.93;;;6.47;;
75437;SDS011;64015;49.392;15.582;2023-02-14T01:49:04;15.38;;;6.88;;
75437;SDS011;64015;49.392;15.582;2023-02-14T01:51:37;15.07;;;6.40;;
75437;SDS011;64015;49.392;15.582;2023-02-14T01:54:08;16.27;;;6.38;;
75437;SDS011;64015;49.392;15.582;2023-02-14T01:56:37;16.10;;;6.93;;
75437;SDS011;64015;49.392;15.582;2023-02-14T01:59:08;17.35;;;6.63;;
75437;SDS011;64015;49.392;15.582;2023-02-14T02:01:39;17.90;;;7.13;;
75437;SDS011;64015;49.392;15.582;2023-02-14T02:04:07;15.25;;;6.78;;
75437;SDS011;64015;49.392;15.582;2023-02-14T02:06:39;16.42;;;6.78;;
75437;SDS011;64015;49.392;15.582;2023-02-14T02:11:59;13.82;;;6.30;;
75437;SDS011;64015;49.392;15.582;2023-02-14T02:14:26;14.23;;;6.18;;
75437;SDS011;64015;49.392;15.582;2023-02-14T02:16:59;18.75;;;6.93;;
75437;SDS011;64015;49.392;15.582;2023-02-14T02:28:10;16.95;;;7.00;;
75437;SDS011;64015;49.392;15.582;2023-02-14T02:42:03;19.42;;;7.70;;
75437;SDS011;64015;49.392;15.582;2023-02-14T02:44:55;17.67;;;7.00;;
75437;SDS011;64015;49.392;15.582;2023-02-14T02:53:07;16.90;;;7.53;;
75437;SDS011;64015;49.392;15.582;2023-02-14T02:58:32;17.60;;;7.90;;
75437;SDS011;64015;49.392;15.582;2023-02-14T03:01:22;20.75;;;8.23;;
75437;SDS011;64015;49.392;15.582;2023-02-14T03:03:53;16.20;;;7.32;;
75437;SDS011;64015;49.392;15.582;2023-02-14T03:06:43;20.50;;;7.80;;
75437;SDS011;64015;49.392;15.582;2023-02-14T03:17:24;19.90;;;7.75;;
75437;SDS011;64015;49.392;15.582;2023-02-14T03:23:19;21.38;;;7.95;;
75437;SDS011;64015;49.392;15.582;2023-02-14T03:31:36;20.90;;;8.30;;
75437;SDS011;64015;49.392;15.582;2023-02-14T03:36:39;16.05;;;6.78;;
75437;SDS011;64015;49.392;15.582;2023-02-14T03:39:54;21.48;;;8.63;;
75437;SDS011;64015;49.392;15.582;2023-02-14T03:42:10;20.02;;;7.78;;
75437;SDS011;64015;49.392;15.582;2023-02-14T03:44:40;19.92;;;8.40;;
75437;SDS011;64015;49.392;15.582;2023-02-14T03:47:09;21.75;;;9.00;;
75437;SDS011;64015;49.392;15.582;2023-02-14T03:49:39;20.17;;;8.43;;
75437;SDS011;64015;49.392;15.582;2023-02-14T03:52:08;19.35;;;8.40;;
75437;SDS011;64015;49.392;15.582;2023-02-14T03:59:45;21.80;;;8.15;;
75437;SDS011;64015;49.392;15.582;2023-02-14T04:05:15;27.38;;;10.60;;
75437;SDS011;64015;49.392;15.582;2023-02-14T04:07:46;25.20;;;8.93;;
75437;SDS011;64015;49.392;15.582;2023-02-14T04:10:14;23.63;;;9.68;;
75437;SDS011;64015;49.392;15.582;2023-02-14T04:12:40;30.58;;;10.43;;
75437;SDS011;64015;49.392;15.582;2023-02-14T04:15:06;26.23;;;10.18;;
75437;SDS011;64015;49.392;15.582;2023-02-14T04:17:33;21.15;;;9.57;;
75437;SDS011;64015;49.392;15.582;2023-02-14T04:20:17;23.92;;;10.00;;
75437;SDS011;64015;49.392;15.582;2023-02-14T04:22:43;21.13;;;8.82;;
75437;SDS011;64015;49.392;15.582;2023-02-14T04:25:10;20.73;;;8.50;;
75437;SDS011;64015;49.392;15.582;2023-02-14T04:27:37;23.58;;;9.38;;
75437;SDS011;64015;49.392;15.582;2023-02-14T04:30:02;21.48;;;8.93;;
75437;SDS011;64015;49.392;15.582;2023-02-14T04:32:28;24.48;;;9.63;;
75437;SDS011;64015;49.392;15.582;2023-02-14T04:34:54;24.05;;;9.45;;
75437;SDS011;64015;49.392;15.582;2023-02-14T04:37:19;19.63;;;8.52;;
75437;SDS011;64015;49.392;15.582;2023-02-14T04:39:45;19.92;;;7.70;;
75437;SDS011;64015;49.392;15.582;2023-02-14T04:42:11;23.38;;;8.48;;
75437;SDS011;64015;49.392;15.582;2023-02-14T04:44:38;18.20;;;7.82;;
75437;SDS011;64015;49.392;15.582;2023-02-14T04:47:04;21.05;;;8.32;;
75437;SDS011;64015;49.392;15.582;2023-02-14T04:49:31;18.83;;;7.03;;
75437;SDS011;64015;49.392;15.582;2023-02-14T04:51:57;17.63;;;7.60;;
75437;SDS011;64015;49.392;15.582;2023-02-14T04:54:24;16.73;;;7.57;;
75437;SDS011;64015;49.392;15.582;2023-02-14T04:56:49;17.60;;;7.75;;
75437;SDS011;64015;49.392;15.582;2023-02-14T04:59:15;18.23;;;8.48;;
75437;SDS011;64015;49.392;15.582;2023-02-14T05:01:41;22.02;;;8.52;;
75437;SDS011;64015;49.392;15.582;2023-02-14T05:04:07;20.25;;;7.47;;
75437;SDS011;64015;49.392;15.582;2023-02-14T05:06:33;19.92;;;7.80;;
75437;SDS011;64015;49.392;15.582;2023-02-14T05:08:59;19.48;;;8.27;;
75437;SDS011;64015;49.392;15.582;2023-02-14T05:11:26;21.55;;;8.52;;
75437;SDS011;64015;49.392;15.582;2023-02-14T05:13:53;13.95;;;5.68;;
75437;SDS011;64015;49.392;15.582;2023-02-14T05:16:19;19.90;;;8.35;;
75437;SDS011;64015;49.392;15.582;2023-02-14T05:18:44;19.60;;;8.48;;
75437;SDS011;64015;49.392;15.582;2023-02-14T05:21:10;23.42;;;9.30;;
75437;SDS011;64015;49.392;15.582;2023-02-14T05:23:36;21.73;;;8.30;;
75437;SDS011;64015;49.392;15.582;2023-02-14T05:26:03;18.55;;;7.20;;
75437;SDS011;64015;49.392;15.582;2023-02-14T05:28:28;18.17;;;7.95;;
75437;SDS011;64015;49.392;15.582;2023-02-14T05:30:55;18.73;;;7.82;;
75437;SDS011;64015;49.392;15.582;2023-02-14T05:33:24;20.92;;;9.02;;
75437;SDS011;64015;49.392;15.582;2023-02-14T05:35:50;20.88;;;8.15;;
75437;SDS011;64015;49.392;15.582;2023-02-14T05:38:16;19.88;;;8.75;;
75437;SDS011;64015;49.392;15.582;2023-02-14T05:40:42;21.13;;;8.80;;
75437;SDS011;64015;49.392;15.582;2023-02-14T05:43:08;21.42;;;8.90;;
75437;SDS011;64015;49.392;15.582;2023-02-14T05:45:34;21.20;;;8.30;;
75437;SDS011;64015;49.392;15.582;2023-02-14T05:48:00;20.13;;;6.57;;
75437;SDS011;64015;49.392;15.582;2023-02-14T05:50:25;19.05;;;8.23;;
75437;SDS011;64015;49.392;15.582;2023-02-14T05:52:51;17.42;;;7.57;;
75437;SDS011;64015;49.392;15.582;2023-02-14T05:55:16;19.17;;;8.20;;
75437;SDS011;64015;49.392;15.582;2023-02-14T05:57:42;16.95;;;7.43;;
75437;SDS011;64015;49.392;15.582;2023-02-14T06:00:08;17.52;;;7.38;;
75437;SDS011;64015;49.392;15.582;2023-02-14T06:02:34;16.45;;;7.32;;
75437;SDS011;64015;49.392;15.582;2023-02-14T06:05:00;17.95;;;8.25;;
75437;SDS011;64015;49.392;15.582;2023-02-14T06:07:26;17.73;;;8.35;;
75437;SDS011;64015;49.392;15.582;2023-02-14T06:09:51;17.23;;;8.00;;
75437;SDS011;64015;49.392;15.582;2023-02-14T06:12:17;18.90;;;8.65;;
75437;SDS011;64015;49.392;15.582;2023-02-14T06:14:43;17.45;;;7.75;;
75437;SDS011;64015;49.392;15.582;2023-02-14T06:17:09;19.77;;;8.82;;
75437;SDS011;64015;49.392;15.582;2023-02-14T06:19:35;19.75;;;7.88;;
75437;SDS011;64015;49.392;15.582;2023-02-14T06:22:01;17.15;;;7.75;;
75437;SDS011;64015;49.392;15.582;2023-02-14T06:24:27;13.82;;;6.53;;
75437;SDS011;64015;49.392;15.582;2023-02-14T06:26:53;19.02;;;7.88;;
75437;SDS011;64015;49.392;15.582;2023-02-14T06:29:18;22.05;;;9.10;;
75437;SDS011;64015;49.392;15.582;2023-02-14T06:31:44;20.13;;;9.18;;
75437;SDS011;64015;49.392;15.582;2023-02-14T06:34:10;18.75;;;7.63;;
75437;SDS011;64015;49.392;15.582;2023-02-14T06:36:36;18.63;;;8.40;;
75437;SDS011;64015;49.392;15.582;2023-02-14T06:39:01;22.80;;;8.90;;
75437;SDS011;64015;49.392;15.582;2023-02-14T06:41:27;18.35;;;7.63;;
75437;SDS011;64015;49.392;15.582;2023-02-14T06:43:53;18.02;;;8.32;;
75437;SDS011;64015;49.392;15.582;2023-02-14T06:46:19;19.55;;;8.32;;
75437;SDS011;64015;49.392;15.582;2023-02-14T06:48:45;17.58;;;7.53;;
75437;SDS011;64015;49.392;15.582;2023-02-14T06:51:11;18.20;;;8.43;;
75437;SDS011;64015;49.392;15.582;2023-02-14T06:53:36;18.98;;;8.90;;
75437;SDS011;64015;49.392;15.582;2023-02-14T06:56:03;16.23;;;7.70;;
75437;SDS011;64015;49.392;15.582;2023-02-14T06:58:29;17.73;;;8.20;;
75437;SDS011;64015;49.392;15.582;2023-02-14T07:00:55;18.55;;;7.93;;
75437;SDS011;64015;49.392;15.582;2023-02-14T07:03:22;17.60;;;7.75;;
75437;SDS011;64015;49.392;15.582;2023-02-14T07:05:48;18.45;;;7.93;;
75437;SDS011;64015;49.392;15.582;2023-02-14T07:08:13;18.08;;;7.38;;
75437;SDS011;64015;49.392;15.582;2023-02-14T07:10:40;20.90;;;8.35;;
75437;SDS011;64015;49.392;15.582;2023-02-14T07:13:05;21.80;;;9.55;;
75437;SDS011;64015;49.392;15.582;2023-02-14T07:15:31;19.25;;;8.07;;
75437;SDS011;64015;49.392;15.582;2023-02-14T07:17:57;17.85;;;7.63;;
75437;SDS011;64015;49.392;15.582;2023-02-14T07:20:23;19.13;;;8.00;;
75437;SDS011;64015;49.392;15.582;2023-02-14T07:22:49;15.30;;;7.28;;
75437;SDS011;64015;49.392;15.582;2023-02-14T07:25:15;15.30;;;7.13;;
75437;SDS011;64015;49.392;15.582;2023-02-14T07:27:41;18.33;;;7.43;;
75437;SDS011;64015;49.392;15.582;2023-02-14T07:30:07;19.23;;;8.10;;
75437;SDS011;64015;49.392;15.582;2023-02-14T07:32:35;20.35;;;8.15;;
75437;SDS011;64015;49.392;15.582;2023-02-14T07:35:02;19.33;;;8.38;;
75437;SDS011;64015;49.392;15.582;2023-02-14T07:37:28;18.42;;;7.40;;
75437;SDS011;64015;49.392;15.582;2023-02-14T07:39:54;13.45;;;5.85;;
75437;SDS011;64015;49.392;15.582;2023-02-14T07:42:19;18.77;;;8.00;;
75437;SDS011;64015;49.392;15.582;2023-02-14T07:44:45;15.45;;;6.53;;
75437;SDS011;64015;49.392;15.582;2023-02-14T07:47:10;19.85;;;7.72;;
75437;SDS011;64015;49.392;15.582;2023-02-14T07:49:36;14.52;;;7.28;;
75437;SDS011;64015;49.392;15.582;2023-02-14T07:52:02;16.08;;;6.88;;
75437;SDS011;64015;49.392;15.582;2023-02-14T07:54:28;14.80;;;7.53;;
75437;SDS011;64015;49.392;15.582;2023-02-14T07:56:54;16.65;;;7.53;;
75437;SDS011;64015;49.392;15.582;2023-02-14T07:59:20;19.00;;;8.10;;
75437;SDS011;64015;49.392;15.582;2023-02-14T08:01:46;20.25;;;7.53;;
75437;SDS011;64015;49.392;15.582;2023-02-14T08:04:11;16.17;;;7.10;;
75437;SDS011;64015;49.392;15.582;2023-02-14T08:06:40;19.35;;;7.25;;
75437;SDS011;64015;49.392;15.582;2023-02-14T08:11:36;15.73;;;5.78;;
75437;SDS011;64015;49.392;15.582;2023-02-14T08:14:23;18.35;;;7.78;;
75437;SDS011;64015;49.392;15.582;2023-02-14T08:16:48;18.33;;;7.90;;
75437;SDS011;64015;49.392;15.582;2023-02-14T08:19:14;17.38;;;7.80;;
75437;SDS011;64015;49.392;15.582;2023-02-14T08:21:39;19.85;;;8.50;;
75437;SDS011;64015;49.392;15.582;2023-02-14T08:24:05;22.25;;;9.10;;
75437;SDS011;64015;49.392;15.582;2023-02-14T08:26:30;20.63;;;8.95;;
75437;SDS011;64015;49.392;15.582;2023-02-14T08:28:56;23.50;;;9.63;;
75437;SDS011;64015;49.392;15.582;2023-02-14T08:31:27;17.10;;;8.40;;
75437;SDS011;64015;49.392;15.582;2023-02-14T08:33:54;23.83;;;9.65;;
75437;SDS011;64015;49.392;15.582;2023-02-14T08:36:20;19.02;;;8.15;;
75437;SDS011;64015;49.392;15.582;2023-02-14T08:38:46;22.52;;;8.60;;
75437;SDS011;64015;49.392;15.582;2023-02-14T08:41:16;20.65;;;9.60;;
75437;SDS011;64015;49.392;15.582;2023-02-14T08:43:43;21.38;;;9.40;;
75437;SDS011;64015;49.392;15.582;2023-02-14T08:46:09;20.08;;;8.93;;
75437;SDS011;64015;49.392;15.582;2023-02-14T08:51:04;22.33;;;9.77;;
75437;SDS011;64015;49.392;15.582;2023-02-14T08:53:31;17.60;;;8.32;;
75437;SDS011;64015;49.392;15.582;2023-02-14T08:56:00;15.15;;;6.88;;
75437;SDS011;64015;49.392;15.582;2023-02-14T08:58:27;18.70;;;8.05;;
75437;SDS011;64015;49.392;15.582;2023-02-14T09:00:53;20.15;;;8.50;;
75437;SDS011;64015;49.392;15.582;2023-02-14T09:03:20;23.38;;;8.65;;
75437;SDS011;64015;49.392;15.582;2023-02-14T09:05:46;19.25;;;8.45;;
75437;SDS011;64015;49.392;15.582;2023-02-14T09:08:12;17.65;;;7.80;;
75437;SDS011;64015;49.392;15.582;2023-02-14T09:10:37;19.40;;;7.82;;
75437;SDS011;64015;49.392;15.582;2023-02-14T09:13:03;16.10;;;8.73;;
75437;SDS011;64015;49.392;15.582;2023-02-14T09:15:29;18.38;;;7.75;;
75437;SDS011;64015;49.392;15.582;2023-02-14T09:17:55;17.80;;;7.70;;
75437;SDS011;64015;49.392;15.582;2023-02-14T09:20:20;17.45;;;7.13;;
75437;SDS011;64015;49.392;15.582;2023-02-14T09:22:47;17.20;;;8.05;;
75437;SDS011;64015;49.392;15.582;2023-02-14T09:25:12;21.85;;;9.27;;
75437;SDS011;64015;49.392;15.582;2023-02-14T09:27:38;20.40;;;8.35;;
75437;SDS011;64015;49.392;15.582;2023-02-14T09:30:05;19.30;;;9.10;;
75437;SDS011;64015;49.392;15.582;2023-02-14T09:32:33;19.98;;;8.65;;
75437;SDS011;64015;49.392;15.582;2023-02-14T09:34:59;18.70;;;8.88;;
75437;SDS011;64015;49.392;15.582;2023-02-14T09:37:25;20.02;;;8.82;;
75437;SDS011;64015;49.392;15.582;2023-02-14T09:40:11;18.08;;;8.02;;
75437;SDS011;64015;49.392;15.582;2023-02-14T09:45:18;20.33;;;9.20;;
75437;SDS011;64015;49.392;15.582;2023-02-14T09:47:51;22.20;;;9.50;;
75437;SDS011;64015;49.392;15.582;2023-02-14T09:50:26;19.40;;;8.43;;
75437;SDS011;64015;49.392;15.582;2023-02-14T09:52:55;21.50;;;9.70;;
75437;SDS011;64015;49.392;15.582;2023-02-14T09:55:27;21.92;;;9.13;;
75437;SDS011;64015;49.392;15.582;2023-02-14T10:00:45;20.17;;;8.63;;
75437;SDS011;64015;49.392;15.582;2023-02-14T10:03:25;22.77;;;10.00;;
75437;SDS011;64015;49.392;15.582;2023-02-14T10:11:25;20.17;;;9.35;;
75437;SDS011;64015;49.392;15.582;2023-02-14T10:13:56;22.67;;;8.63;;
75437;SDS011;64015;49.392;15.582;2023-02-14T10:19:24;22.92;;;10.45;;
75437;SDS011;64015;49.392;15.582;2023-02-14T10:22:00;26.25;;;10.27;;
75437;SDS011;64015;49.392;15.582;2023-02-14T10:24:34;21.95;;;9.13;;
75437;SDS011;64015;49.392;15.582;2023-02-14T10:27:11;22.67;;;9.52;;
75437;SDS011;64015;49.392;15.582;2023-02-14T10:29:39;22.58;;;10.30;;
75437;SDS011;64015;49.392;15.582;2023-02-14T10:32:09;21.83;;;8.70;;
75437;SDS011;64015;49.392;15.582;2023-02-14T10:34:48;24.15;;;10.05;;
75437;SDS011;64015;49.392;15.582;2023-02-14T10:45:50;23.33;;;9.75;;
75437;SDS011;64015;49.392;15.582;2023-02-14T10:51:17;20.48;;;9.35;;
75437;SDS011;64015;49.392;15.582;2023-02-14T10:53:51;30.10;;;13.00;;
75437;SDS011;64015;49.392;15.582;2023-02-14T10:56:41;18.90;;;9.02;;
75437;SDS011;64015;49.392;15.582;2023-02-14T10:59:28;17.80;;;8.27;;
75437;SDS011;64015;49.392;15.582;2023-02-14T11:01:59;19.98;;;9.45;;
75437;SDS011;64015;49.392;15.582;2023-02-14T11:04:26;18.30;;;8.52;;
75437;SDS011;64015;49.392;15.582;2023-02-14T11:06:55;21.90;;;9.48;;
75437;SDS011;64015;49.392;15.582;2023-02-14T11:09:20;20.80;;;9.32;;
75437;SDS011;64015;49.392;15.582;2023-02-14T11:11:55;22.50;;;9.93;;
75437;SDS011;64015;49.392;15.582;2023-02-14T11:14:27;22.30;;;9.93;;
75437;SDS011;64015;49.392;15.582;2023-02-14T11:16:56;21.95;;;9.40;;
75437;SDS011;64015;49.392;15.582;2023-02-14T11:21:54;23.13;;;10.70;;
75437;SDS011;64015;49.392;15.582;2023-02-14T11:26:55;26.40;;;10.65;;
75437;SDS011;64015;49.392;15.582;2023-02-14T11:29:25;24.15;;;10.32;;
75437;SDS011;64015;49.392;15.582;2023-02-14T11:35:07;26.80;;;11.13;;
75437;SDS011;64015;49.392;15.582;2023-02-14T11:37:45;27.83;;;11.32;;
75437;SDS011;64015;49.392;15.582;2023-02-14T11:40:28;26.77;;;10.57;;
75437;SDS011;64015;49.392;15.582;2023-02-14T11:46:52;21.67;;;9.85;;
75437;SDS011;64015;49.392;15.582;2023-02-14T11:57:57;24.83;;;10.27;;
75437;SDS011;64015;49.392;15.582;2023-02-14T12:00:25;24.55;;;10.23;;
75437;SDS011;64015;49.392;15.582;2023-02-14T12:02:53;24.90;;;11.38;;
75437;SDS011;64015;49.392;15.582;2023-02-14T12:05:30;26.60;;;11.65;;
75437;SDS011;64015;49.392;15.582;2023-02-14T12:08:00;24.30;;;10.68;;
75437;SDS011;64015;49.392;15.582;2023-02-14T12:10:29;32.40;;;12.48;;
75437;SDS011;64015;49.392;15.582;2023-02-14T12:23:48;23.02;;;9.00;;
75437;SDS011;64015;49.392;15.582;2023-02-14T12:31:42;24.77;;;10.35;;
75437;SDS011;64015;49.392;15.582;2023-02-14T12:34:10;29.85;;;12.98;;
75437;SDS011;64015;49.392;15.582;2023-02-14T12:45:11;26.60;;;10.70;;
75437;SDS011;64015;49.392;15.582;2023-02-14T12:47:49;28.08;;;11.55;;
75437;SDS011;64015;49.392;15.582;2023-02-14T12:53:52;23.67;;;9.95;;
75437;SDS011;64015;49.392;15.582;2023-02-14T12:57:03;23.95;;;10.40;;
75437;SDS011;64015;49.392;15.582;2023-02-14T13:04:57;24.05;;;10.52;;
75437;SDS011;64015;49.392;15.582;2023-02-14T13:13:32;26.25;;;11.05;;
75437;SDS011;64015;49.392;15.582;2023-02-14T13:21:32;21.30;;;9.93;;
75437;SDS011;64015;49.392;15.582;2023-02-14T13:24:12;25.55;;;10.80;;
75437;SDS011;64015;49.392;15.582;2023-02-14T13:26:48;25.90;;;11.05;;
75437;SDS011;64015;49.392;15.582;2023-02-14T13:29:20;26.35;;;11.68;;
75437;SDS011;64015;49.392;15.582;2023-02-14T13:31:48;23.15;;;10.95;;
75437;SDS011;64015;49.392;15.582;2023-02-14T13:36:42;27.40;;;11.05;;
75437;SDS011;64015;49.392;15.582;2023-02-14T13:39:09;26.50;;;11.45;;
75437;SDS011;64015;49.392;15.582;2023-02-14T13:41:49;24.05;;;11.38;;
75437;SDS011;64015;49.392;15.582;2023-02-14T13:44:40;26.17;;;11.50;;
75437;SDS011;64015;49.392;15.582;2023-02-14T13:49:33;28.63;;;10.93;;
75437;SDS011;64015;49.392;15.582;2023-02-14T13:52:04;25.83;;;11.07;;
75437;SDS011;64015;49.392;15.582;2023-02-14T13:54:35;25.65;;;11.68;;
75437;SDS011;64015;49.392;15.582;2023-02-14T14:19:33;25.55;;;11.52;;
75437;SDS011;64015;49.392;15.582;2023-02-14T14:22:02;29.75;;;12.88;;
75437;SDS011;64015;49.392;15.582;2023-02-14T14:24:36;26.27;;;11.48;;
75437;SDS011;64015;49.392;15.582;2023-02-14T14:27:14;24.38;;;11.07;;
75437;SDS011;64015;49.392;15.582;2023-02-14T14:29:44;26.88;;;12.05;;
75437;SDS011;64015;49.392;15.582;2023-02-14T14:32:37;28.92;;;10.82;;
75437;SDS011;64015;49.392;15.582;2023-02-14T14:35:15;27.45;;;11.93;;
75437;SDS011;64015;49.392;15.582;2023-02-14T14:40:45;44.67;;;17.30;;
75437;SDS011;64015;49.392;15.582;2023-02-14T14:43:13;25.25;;;12.07;;
75437;SDS011;64015;49.392;15.582;2023-02-14T14:45:46;27.50;;;11.00;;
75437;SDS011;64015;49.392;15.582;2023-02-14T14:48:25;28.95;;;11.15;;
75437;SDS011;64015;49.392;15.582;2023-02-14T14:50:54;25.90;;;11.18;;
75437;SDS011;64015;49.392;15.582;2023-02-14T14:56:00;29.17;;;12.05;;
75437;SDS011;64015;49.392;15.582;2023-02-14T14:58:33;27.15;;;11.57;;
75437;SDS011;64015;49.392;15.582;2023-02-14T15:01:03;25.35;;;11.98;;
75437;SDS011;64015;49.392;15.582;2023-02-14T15:03:31;26.83;;;12.43;;
75437;SDS011;64015;49.392;15.582;2023-02-14T15:06:18;27.70;;;11.55;;
75437;SDS011;64015;49.392;15.582;2023-02-14T15:08:45;24.63;;;11.18;;
75437;SDS011;64015;49.392;15.582;2023-02-14T15:11:26;27.70;;;11.93;;
75437;SDS011;64015;49.392;15.582;2023-02-14T15:14:14;26.80;;;10.88;;
75437;SDS011;64015;49.392;15.582;2023-02-14T15:16:44;25.70;;;11.55;;
75437;SDS011;64015;49.392;15.582;2023-02-14T15:19:21;29.25;;;12.15;;
75437;SDS011;64015;49.392;15.582;2023-02-14T15:21:51;27.23;;;12.27;;
75437;SDS011;64015;49.392;15.582;2023-02-14T15:24:16;26.58;;;11.68;;
75437;SDS011;64015;49.392;15.582;2023-02-14T15:26:44;23.42;;;10.95;;
75437;SDS011;64015;49.392;15.582;2023-02-14T15:29:19;27.13;;;12.32;;
75437;SDS011;64015;49.392;15.582;2023-02-14T15:31:50;27.42;;;11.65;;
75437;SDS011;64015;49.392;15.582;2023-02-14T15:34:21;26.05;;;10.98;;
75437;SDS011;64015;49.392;15.582;2023-02-14T15:36:49;26.85;;;10.80;;
75437;SDS011;64015;49.392;15.582;2023-02-14T15:39:22;26.60;;;10.68;;
75437;SDS011;64015;49.392;15.582;2023-02-14T15:41:54;23.83;;;10.40;;
75437;SDS011;64015;49.392;15.582;2023-02-14T15:44:21;24.55;;;10.30;;
75437;SDS011;64015;49.392;15.582;2023-02-14T15:46:52;28.60;;;12.05;;
75437;SDS011;64015;49.392;15.582;2023-02-14T15:49:20;23.73;;;11.20;;
75437;SDS011;64015;49.392;15.582;2023-02-14T15:51:49;26.42;;;12.00;;
75437;SDS011;64015;49.392;15.582;2023-02-14T15:54:18;28.10;;;10.50;;
75437;SDS011;64015;49.392;15.582;2023-02-14T15:56:50;26.35;;;11.20;;
75437;SDS011;64015;49.392;15.582;2023-02-14T15:59:21;29.02;;;11.80;;
75437;SDS011;64015;49.392;15.582;2023-02-14T16:04:54;30.42;;;11.95;;
75437;SDS011;64015;49.392;15.582;2023-02-14T16:07:28;24.17;;;10.80;;
75437;SDS011;64015;49.392;15.582;2023-02-14T16:10:17;28.77;;;11.52;;
75437;SDS011;64015;49.392;15.582;2023-02-14T16:12:59;26.45;;;11.25;;
75437;SDS011;64015;49.392;15.582;2023-02-14T16:15:28;29.13;;;11.65;;
75437;SDS011;64015;49.392;15.582;2023-02-14T16:17:56;30.50;;;12.10;;
75437;SDS011;64015;49.392;15.582;2023-02-14T16:23:15;28.75;;;12.65;;
75437;SDS011;64015;49.392;15.582;2023-02-14T16:25:40;30.73;;;11.38;;
75437;SDS011;64015;49.392;15.582;2023-02-14T16:28:06;27.20;;;11.30;;
75437;SDS011;64015;49.392;15.582;2023-02-14T16:30:33;25.95;;;10.75;;
75437;SDS011;64015;49.392;15.582;2023-02-14T16:32:59;28.25;;;11.93;;
75437;SDS011;64015;49.392;15.582;2023-02-14T16:35:25;27.88;;;12.27;;
75437;SDS011;64015;49.392;15.582;2023-02-14T16:37:51;29.52;;;12.52;;
75437;SDS011;64015;49.392;15.582;2023-02-14T16:40:18;25.95;;;11.43;;
75437;SDS011;64015;49.392;15.582;2023-02-14T16:42:48;28.20;;;11.55;;
75437;SDS011;64015;49.392;15.582;2023-02-14T16:45:14;25.95;;;11.10;;
75437;SDS011;64015;49.392;15.582;2023-02-14T16:47:41;29.02;;;11.45;;
75437;SDS011;64015;49.392;15.582;2023-02-14T16:50:07;27.13;;;11.35;;
75437;SDS011;64015;49.392;15.582;2023-02-14T16:52:34;32.03;;;13.98;;
75437;SDS011;64015;49.392;15.582;2023-02-14T16:55:00;29.15;;;12.75;;
75437;SDS011;64015;49.392;15.582;2023-02-14T16:57:38;30.10;;;11.23;;
75437;SDS011;64015;49.392;15.582;2023-02-14T17:00:07;26.30;;;11.20;;
75437;SDS011;64015;49.392;15.582;2023-02-14T17:02:34;30.67;;;11.88;;
75437;SDS011;64015;49.392;15.582;2023-02-14T17:05:00;27.33;;;11.70;;
75437;SDS011;64015;49.392;15.582;2023-02-14T17:07:27;25.88;;;10.25;;
75437;SDS011;64015;49.392;15.582;2023-02-14T17:09:56;29.45;;;11.23;;
75437;SDS011;64015;49.392;15.582;2023-02-14T17:12:28;26.02;;;10.48;;
75437;SDS011;64015;49.392;15.582;2023-02-14T17:14:59;30.33;;;11.60;;
75437;SDS011;64015;49.392;15.582;2023-02-14T17:19:59;25.48;;;11.10;;
75437;SDS011;64015;49.392;15.582;2023-02-14T17:22:26;26.23;;;10.98;;
75437;SDS011;64015;49.392;15.582;2023-02-14T17:24:52;30.48;;;12.25;;
75437;SDS011;64015;49.392;15.582;2023-02-14T17:27:18;33.60;;;13.05;;
75437;SDS011;64015;49.392;15.582;2023-02-14T17:29:43;36.30;;;14.40;;
75437;SDS011;64015;49.392;15.582;2023-02-14T17:32:10;31.27;;;13.88;;
75437;SDS011;64015;49.392;15.582;2023-02-14T17:34:37;34.42;;;13.95;;
75437;SDS011;64015;49.392;15.582;2023-02-14T17:37:03;35.08;;;14.48;;
75437;SDS011;64015;49.392;15.582;2023-02-14T17:39:28;32.00;;;14.13;;
75437;SDS011;64015;49.392;15.582;2023-02-14T17:41:54;33.78;;;14.43;;
75437;SDS011;64015;49.392;15.582;2023-02-14T17:44:23;29.95;;;14.50;;
75437;SDS011;64015;49.392;15.582;2023-02-14T17:46:50;28.88;;;12.52;;
75437;SDS011;64015;49.392;15.582;2023-02-14T17:49:18;32.97;;;13.65;;
75437;SDS011;64015;49.392;15.582;2023-02-14T17:51:46;46.05;;;16.60;;